createdAt,value
2019-01-06T00:01:40.163Z,7.40
2019-01-06T00:04:40.943Z,7.40
2019-01-06T00:10:10.787Z,7.40
2019-01-06T00:13:10.030Z,7.40
2019-01-06T00:16:02.827Z,7.30
2019-01-06T00:19:04.454Z,7.30
2019-01-06T00:25:00.946Z,7.40
2019-01-06T00:27:44.474Z,7.40
2019-01-06T00:33:32.983Z,7.40
2019-01-06T00:36:33.105Z,7.40
2019-01-06T00:42:43.995Z,7.40
2019-01-06T00:48:35.454Z,7.40
2019-01-06T00:54:33.150Z,7.40
2019-01-06T00:57:15.199Z,7.40
2019-01-06T01:03:04.811Z,7.40
2019-01-06T01:08:28.595Z,7.40
2019-01-06T01:14:17.655Z,7.40
2019-01-06T01:19:48.820Z,7.40
2019-01-06T01:22:30.991Z,7.40
2019-01-06T01:27:56.362Z,7.40
2019-01-06T01:33:21.591Z,7.40
2019-01-06T01:38:52.136Z,7.40
2019-01-06T01:44:39.777Z,7.40
2019-01-06T01:47:30.302Z,7.40
2019-01-06T01:50:12.115Z,7.40
2019-01-06T01:55:43.031Z,7.40
2019-01-06T01:58:26.487Z,7.40
2019-01-06T02:07:11.708Z,7.40
2019-01-06T02:10:02.674Z,7.40
2019-01-06T02:15:31.880Z,7.40
2019-01-06T02:21:21.511Z,7.30
2019-01-06T02:24:21.438Z,7.30
2019-01-06T02:30:51.091Z,7.30
2019-01-06T02:33:50.459Z,7.30
2019-01-06T02:36:53.132Z,7.30
2019-01-06T02:39:53.616Z,7.30
2019-01-06T02:45:55.698Z,7.30
2019-01-06T02:51:45.508Z,7.30
2019-01-06T03:00:13.592Z,7.20
2019-01-06T03:05:59.086Z,7.20
2019-01-06T03:11:36.030Z,7.20
2019-01-06T03:14:28.691Z,7.20
2019-01-06T03:17:25.154Z,7.20
2019-01-06T03:23:34.696Z,7.20
2019-01-06T03:35:19.707Z,7.20
2019-01-06T03:38:13.126Z,7.20
2019-01-06T03:43:43.995Z,7.20
2019-01-06T03:46:26.011Z,7.10
2019-01-06T03:51:55.722Z,7.10
2019-01-06T03:54:54.067Z,7.10
2019-01-06T03:57:49.821Z,7.10
2019-01-06T04:03:38.485Z,7.10
2019-01-06T04:06:44.281Z,7.10
2019-01-06T04:12:33.278Z,7.10
2019-01-06T04:18:04.392Z,7.00
2019-01-06T04:23:35.211Z,7.10
2019-01-06T04:29:08.519Z,7.00
2019-01-06T04:32:17.562Z,7.00
2019-01-06T04:37:43.451Z,7.00
2019-01-06T04:43:14.730Z,7.00
2019-01-06T04:48:44.919Z,7.00
2019-01-06T04:57:51.779Z,7.00
2019-01-06T05:00:33.044Z,7.00
2019-01-06T05:05:58.975Z,7.00
2019-01-06T05:08:41.027Z,7.00
2019-01-06T05:14:30.719Z,6.90
2019-01-06T05:20:01.171Z,6.90
2019-01-06T05:25:31.599Z,6.90
2019-01-06T05:28:30.422Z,7.00
2019-01-06T05:31:30.566Z,6.90
2019-01-06T05:34:30.246Z,6.90
2019-01-06T05:40:20.956Z,6.90
2019-01-06T05:49:04.767Z,6.90
2019-01-06T06:03:31.277Z,6.80
2019-01-06T06:09:10.092Z,6.80
2019-01-06T06:14:43.111Z,6.80
2019-01-06T06:23:17.119Z,6.80
2019-01-06T06:28:54.996Z,6.80
2019-01-06T06:31:37.175Z,6.80
2019-01-06T06:40:23.081Z,6.90
2019-01-06T06:45:51.243Z,6.90
2019-01-06T06:48:33.291Z,6.90
2019-01-06T06:51:28.174Z,6.90
2019-01-06T06:56:59.467Z,6.90
2019-01-06T06:59:59.892Z,6.90
2019-01-06T07:03:05.307Z,6.90
2019-01-06T07:06:12.255Z,6.90
2019-01-06T07:09:12.930Z,6.90
2019-01-06T07:17:47.830Z,6.90
2019-01-06T07:20:47.720Z,6.90
2019-01-06T07:23:49.253Z,6.90
2019-01-06T07:32:12.993Z,6.90
2019-01-06T07:37:59.915Z,6.90
2019-01-06T07:41:00.787Z,6.90
2019-01-06T07:44:01.175Z,7.00
2019-01-06T07:49:26.659Z,7.00
2019-01-06T07:55:16.262Z,7.00
2019-01-06T07:58:12.172Z,7.00
2019-01-06T08:01:13.331Z,7.00
2019-01-06T08:04:09.379Z,7.00
2019-01-06T08:09:35.267Z,7.00
2019-01-06T08:15:18.670Z,7.00
2019-01-06T08:18:18.979Z,7.10
2019-01-06T08:23:56.278Z,7.00
2019-01-06T08:29:26.434Z,7.00
2019-01-06T08:32:32.801Z,7.00
2019-01-06T08:35:38.738Z,7.10
2019-01-06T08:38:38.823Z,7.00
2019-01-06T08:41:19.375Z,7.10
2019-01-06T08:46:48.447Z,7.10
2019-01-06T08:49:51.759Z,7.10
2019-01-06T08:56:00.326Z,7.20
2019-01-06T08:59:05.807Z,7.20
2019-01-06T09:02:10.680Z,7.20
2019-01-06T09:08:16.404Z,7.20
2019-01-06T09:11:15.967Z,7.20
2019-01-06T09:14:15.556Z,7.20
2019-01-06T09:17:15.171Z,7.20
2019-01-06T09:20:17.923Z,7.30
2019-01-06T09:23:23.732Z,7.50
2019-01-06T09:26:26.839Z,7.40
2019-01-06T09:29:26.838Z,7.50
2019-01-06T09:32:26.379Z,7.40
2019-01-06T09:35:26.168Z,7.40
2019-01-06T09:41:20.287Z,7.50
2019-01-06T09:47:24.659Z,7.50
2019-01-06T09:50:24.138Z,7.60
2019-01-06T09:56:14.112Z,7.60
2019-01-06T10:01:44.488Z,7.70
2019-01-06T10:07:42.124Z,7.70
2019-01-06T10:10:45.258Z,7.70
2019-01-06T10:16:15.011Z,7.70
2019-01-06T10:21:45.425Z,7.90
2019-01-06T10:27:17.738Z,7.90
2019-01-06T10:33:12.855Z,7.90
2019-01-06T10:38:36.719Z,7.90
2019-01-06T10:44:07.206Z,8.00
2019-01-06T10:49:36.903Z,8.00
2019-01-06T10:52:19.160Z,8.00
2019-01-06T10:57:44.835Z,8.10
2019-01-06T11:03:15.228Z,8.10
2019-01-06T11:08:46.507Z,8.20
2019-01-06T11:14:12.411Z,8.40
2019-01-06T11:19:38.871Z,8.40
2019-01-06T11:27:54.751Z,8.50
2019-01-06T11:36:46.611Z,8.50
2019-01-06T11:39:28.027Z,8.50
2019-01-06T11:44:59.494Z,8.60
2019-01-06T11:50:25.838Z,8.60
2019-01-06T11:55:55.499Z,8.50
2019-01-06T12:01:25.971Z,8.40
2019-01-06T12:06:57.142Z,8.40
2019-01-06T12:09:39.387Z,8.40
2019-01-06T12:21:39.927Z,8.40
2019-01-06T12:27:31.356Z,8.40
2019-01-06T12:30:13.335Z,8.30
2019-01-06T12:35:42.680Z,8.30
2019-01-06T12:41:34.857Z,8.30
2019-01-06T12:47:04.704Z,8.30
2019-01-06T12:52:31.026Z,8.20
2019-01-06T12:58:02.290Z,8.20
2019-01-06T13:03:28.083Z,8.10
2019-01-06T13:06:10.235Z,8.10
2019-01-06T13:11:39.851Z,8.00
2019-01-06T13:17:11.199Z,8.00
2019-01-06T13:22:41.707Z,8.00
2019-01-06T13:28:31.319Z,8.00
2019-01-06T13:34:02.468Z,8.00
2019-01-06T13:39:53.241Z,8.00
2019-01-06T13:42:35.307Z,8.00
2019-01-06T13:45:32.514Z,8.00
2019-01-06T13:48:25.811Z,7.90
2019-01-06T13:53:55.587Z,8.00
2019-01-06T13:59:20.946Z,7.90
2019-01-06T14:02:19.398Z,7.90
2019-01-06T14:05:00.183Z,7.90
2019-01-06T14:10:29.335Z,7.80
2019-01-06T14:13:11.302Z,7.80
2019-01-06T14:18:37.151Z,7.70
2019-01-06T14:21:36.477Z,7.70
2019-01-06T14:24:38.650Z,7.70
2019-01-06T14:30:18.050Z,7.60
2019-01-06T14:35:49.124Z,7.60
2019-01-06T14:41:29.654Z,7.50
2019-01-06T14:44:30.814Z,7.50
2019-01-06T14:50:16.351Z,7.50
2019-01-06T14:58:38.495Z,7.50
2019-01-06T15:01:35.222Z,7.60
2019-01-06T15:07:27.889Z,7.50
2019-01-06T15:19:31.247Z,7.40
2019-01-06T15:25:30.103Z,7.40
2019-01-06T15:31:42.600Z,7.40
2019-01-06T15:37:22.252Z,7.40
2019-01-06T15:40:23.328Z,7.30
2019-01-06T15:43:22.850Z,7.30
2019-01-06T15:49:03.091Z,7.30
2019-01-06T15:55:06.330Z,7.30
2019-01-06T15:58:05.943Z,7.20
2019-01-06T16:06:49.809Z,7.20
2019-01-06T16:12:33.155Z,7.20
2019-01-06T16:18:46.095Z,7.10
2019-01-06T16:21:28.314Z,7.10
2019-01-06T16:30:43.117Z,7.10
2019-01-06T16:33:45.718Z,7.10
2019-01-06T16:39:42.987Z,7.10
2019-01-06T16:42:25.144Z,7.10
2019-01-06T16:48:15.056Z,7.10
2019-01-06T16:51:15.283Z,7.10
2019-01-06T16:57:00.337Z,7.10
2019-01-06T17:02:30.971Z,7.10
2019-01-06T17:08:21.555Z,7.10
2019-01-06T17:11:22.787Z,7.10
2019-01-06T17:16:53.644Z,7.00
2019-01-06T17:22:24.971Z,7.00
2019-01-06T17:25:23.274Z,7.00
2019-01-06T17:28:23.443Z,7.10
2019-01-06T17:34:19.631Z,7.10
2019-01-06T17:37:00.630Z,7.10
2019-01-06T17:42:31.307Z,7.10
2019-01-06T17:45:37.563Z,7.00
2019-01-06T17:48:38.698Z,7.00
2019-01-06T17:51:44.140Z,7.00
2019-01-06T17:57:09.980Z,7.00
2019-01-06T18:02:58.416Z,7.00
2019-01-06T18:08:48.183Z,7.10
2019-01-06T18:14:19.435Z,7.00
2019-01-06T18:17:01.663Z,7.10
2019-01-06T18:22:51.223Z,7.10
2019-01-06T18:25:47.575Z,7.10
2019-01-06T18:28:45.760Z,7.10
2019-01-06T18:34:17.544Z,7.10
2019-01-06T18:39:53.655Z,7.10
2019-01-06T18:42:53.231Z,7.10
2019-01-06T18:48:44.611Z,7.00
2019-01-06T18:54:16.184Z,7.10
2019-01-06T19:00:03.060Z,7.00
2019-01-06T19:05:33.086Z,7.00
2019-01-06T19:08:16.870Z,7.00
2019-01-06T19:16:51.571Z,7.00
2019-01-06T19:19:54.827Z,7.00
2019-01-06T19:25:25.203Z,6.90
2019-01-06T19:28:07.291Z,7.00
2019-01-06T19:33:37.974Z,7.00
2019-01-06T19:42:19.022Z,6.90
2019-01-06T19:45:02.674Z,6.90
2019-01-06T19:50:58.646Z,7.00
2019-01-06T19:53:39.603Z,7.00
2019-01-06T20:02:01.559Z,6.90
2019-01-06T20:04:43.679Z,6.90
2019-01-06T20:10:54.462Z,6.90
2019-01-06T20:13:34.961Z,6.90
2019-01-06T20:19:05.692Z,6.90
2019-01-06T20:24:35.062Z,6.90
2019-01-06T20:30:06.564Z,6.90
2019-01-06T20:38:34.470Z,6.90
2019-01-06T20:41:16.407Z,6.90
2019-01-06T20:46:48.127Z,6.90
2019-01-06T20:49:30.099Z,6.90
2019-01-06T20:54:55.336Z,6.90
2019-01-06T21:00:26.716Z,6.90
2019-01-06T21:06:18.462Z,6.80
2019-01-06T21:11:43.998Z,6.90
2019-01-06T21:17:08.480Z,6.90
2019-01-06T21:22:39.268Z,6.90
2019-01-06T21:28:29.875Z,6.90
2019-01-06T21:34:20.887Z,6.80
2019-01-06T21:37:01.966Z,6.90
2019-01-06T21:40:08.247Z,6.80
2019-01-06T21:42:48.991Z,6.80
2019-01-06T21:48:40.847Z,6.70
2019-01-06T21:51:32.254Z,6.70
2019-01-06T21:54:12.627Z,6.70
2019-01-06T21:56:56.039Z,6.70
2019-01-06T22:02:39.515Z,6.70
2019-01-06T22:08:31.465Z,6.60
2019-01-06T22:14:18.058Z,6.70
2019-01-06T22:17:26.962Z,6.60
2019-01-06T22:26:14.752Z,6.60
2019-01-06T22:28:55.647Z,6.60
2019-01-06T22:34:46.457Z,6.60
2019-01-06T22:37:55.427Z,6.60
2019-01-06T22:40:58.438Z,6.60
2019-01-06T22:44:00.983Z,6.60
2019-01-06T22:49:49.634Z,6.50
2019-01-06T22:55:54.139Z,6.60
2019-01-06T22:58:57.460Z,6.60
2019-01-06T23:01:56.826Z,6.60
2019-01-06T23:04:41.144Z,6.60
2019-01-06T23:13:27.880Z,6.60
2019-01-06T23:16:27.951Z,6.60
2019-01-06T23:19:20.683Z,6.60
2019-01-06T23:24:48.315Z,6.60
2019-01-06T23:36:05.611Z,6.60
2019-01-06T23:38:47.619Z,6.60
2019-01-06T23:47:13.843Z,6.60
2019-01-06T23:56:08.878Z,6.60
